sensor_id;sensor_type;location;lat;lon;timestamp;P1;durP1;ratioP1;P2;durP2;ratioP2
69991;SDS011;57332;51.320;-0.580;2023-07-20T00:02:21;2.28;;;1.02;;
69991;SDS011;57332;51.320;-0.580;2023-07-20T00:04:48;1.80;;;1.20;;
69991;SDS011;57332;51.320;-0.580;2023-07-20T00:07:15;2.08;;;1.30;;
69991;SDS011;57332;51.320;-0.580;2023-07-20T00:09:42;2.42;;;1.23;;
69991;SDS011;57332;51.320;-0.580;2023-07-20T00:12:09;1.88;;;1.30;;
69991;SDS011;57332;51.320;-0.580;2023-07-20T00:14:36;2.47;;;1.45;;
69991;SDS011;57332;51.320;-0.580;2023-07-20T00:17:03;1.75;;;1.40;;
69991;SDS011;57332;51.320;-0.580;2023-07-20T00:19:30;3.30;;;1.30;;
69991;SDS011;57332;51.320;-0.580;2023-07-20T00:21:58;2.40;;;1.40;;
69991;SDS011;57332;51.320;-0.580;2023-07-20T00:24:26;2.80;;;1.50;;
69991;SDS011;57332;51.320;-0.580;2023-07-20T00:26:53;2.45;;;1.42;;
69991;SDS011;57332;51.320;-0.580;2023-07-20T00:29:20;3.08;;;1.38;;
69991;SDS011;57332;51.320;-0.580;2023-07-20T00:31:47;1.80;;;1.40;;
69991;SDS011;57332;51.320;-0.580;2023-07-20T00:34:17;1.63;;;1.33;;
69991;SDS011;57332;51.320;-0.580;2023-07-20T00:36:44;1.70;;;1.23;;
69991;SDS011;57332;51.320;-0.580;2023-07-20T00:39:11;2.85;;;1.52;;
69991;SDS011;57332;51.320;-0.580;2023-07-20T00:41:38;2.33;;;1.55;;
69991;SDS011;57332;51.320;-0.580;2023-07-20T00:44:05;2.50;;;1.50;;
69991;SDS011;57332;51.320;-0.580;2023-07-20T00:46:32;2.97;;;1.40;;
69991;SDS011;57332;51.320;-0.580;2023-07-20T00:48:59;2.38;;;1.27;;
69991;SDS011;57332;51.320;-0.580;2023-07-20T00:51:27;2.30;;;1.30;;
69991;SDS011;57332;51.320;-0.580;2023-07-20T00:53:54;1.85;;;1.40;;
69991;SDS011;57332;51.320;-0.580;2023-07-20T00:56:21;2.50;;;1.70;;
69991;SDS011;57332;51.320;-0.580;2023-07-20T00:58:49;2.05;;;1.27;;
69991;SDS011;57332;51.320;-0.580;2023-07-20T01:01:16;1.70;;;1.40;;
69991;SDS011;57332;51.320;-0.580;2023-07-20T01:03:43;2.15;;;1.60;;
69991;SDS011;57332;51.320;-0.580;2023-07-20T01:08:58;2.13;;;1.35;;
69991;SDS011;57332;51.320;-0.580;2023-07-20T01:11:32;2.38;;;1.60;;
69991;SDS011;57332;51.320;-0.580;2023-07-20T01:14:02;3.70;;;1.60;;
69991;SDS011;57332;51.320;-0.580;2023-07-20T01:16:29;2.72;;;1.67;;
69991;SDS011;57332;51.320;-0.580;2023-07-20T01:18:56;2.28;;;1.40;;
69991;SDS011;57332;51.320;-0.580;2023-07-20T01:21:26;2.35;;;1.50;;
69991;SDS011;57332;51.320;-0.580;2023-07-20T01:33:48;2.70;;;1.88;;
69991;SDS011;57332;51.320;-0.580;2023-07-20T01:36:16;1.55;;;1.20;;
69991;SDS011;57332;51.320;-0.580;2023-07-20T01:38:45;2.72;;;1.40;;
69991;SDS011;57332;51.320;-0.580;2023-07-20T01:41:12;2.42;;;1.80;;
69991;SDS011;57332;51.320;-0.580;2023-07-20T01:43:39;2.20;;;1.58;;
69991;SDS011;57332;51.320;-0.580;2023-07-20T01:46:06;2.30;;;1.42;;
69991;SDS011;57332;51.320;-0.580;2023-07-20T01:48:33;4.30;;;1.60;;
69991;SDS011;57332;51.320;-0.580;2023-07-20T01:51:00;2.60;;;1.50;;
69991;SDS011;57332;51.320;-0.580;2023-07-20T01:53:27;2.67;;;1.48;;
69991;SDS011;57332;51.320;-0.580;2023-07-20T01:55:54;2.95;;;1.50;;
69991;SDS011;57332;51.320;-0.580;2023-07-20T01:58:21;3.65;;;1.50;;
69991;SDS011;57332;51.320;-0.580;2023-07-20T02:00:48;2.65;;;1.50;;
69991;SDS011;57332;51.320;-0.580;2023-07-20T02:03:15;2.25;;;1.50;;
69991;SDS011;57332;51.320;-0.580;2023-07-20T02:05:42;2.97;;;1.67;;
69991;SDS011;57332;51.320;-0.580;2023-07-20T02:08:09;2.30;;;1.77;;
69991;SDS011;57332;51.320;-0.580;2023-07-20T02:10:36;2.47;;;1.77;;
69991;SDS011;57332;51.320;-0.580;2023-07-20T02:13:03;2.78;;;1.70;;
69991;SDS011;57332;51.320;-0.580;2023-07-20T02:15:30;3.20;;;1.70;;
69991;SDS011;57332;51.320;-0.580;2023-07-20T02:17:57;2.55;;;1.65;;
69991;SDS011;57332;51.320;-0.580;2023-07-20T02:20:23;3.17;;;1.58;;
69991;SDS011;57332;51.320;-0.580;2023-07-20T02:22:50;3.55;;;1.45;;
69991;SDS011;57332;51.320;-0.580;2023-07-20T02:25:17;3.03;;;1.55;;
69991;SDS011;57332;51.320;-0.580;2023-07-20T02:27:44;2.20;;;1.60;;
69991;SDS011;57332;51.320;-0.580;2023-07-20T02:30:11;2.75;;;1.70;;
69991;SDS011;57332;51.320;-0.580;2023-07-20T02:32:38;2.47;;;1.50;;
69991;SDS011;57332;51.320;-0.580;2023-07-20T02:35:05;2.53;;;1.75;;
69991;SDS011;57332;51.320;-0.580;2023-07-20T02:37:32;3.70;;;1.80;;
69991;SDS011;57332;51.320;-0.580;2023-07-20T02:39:59;2.47;;;1.60;;
69991;SDS011;57332;51.320;-0.580;2023-07-20T02:42:27;2.83;;;1.60;;
69991;SDS011;57332;51.320;-0.580;2023-07-20T02:44:54;2.80;;;1.60;;
69991;SDS011;57332;51.320;-0.580;2023-07-20T02:47:21;2.67;;;1.65;;
69991;SDS011;57332;51.320;-0.580;2023-07-20T02:49:48;2.20;;;1.70;;
69991;SDS011;57332;51.320;-0.580;2023-07-20T02:52:15;2.20;;;1.50;;
69991;SDS011;57332;51.320;-0.580;2023-07-20T02:54:42;2.88;;;1.33;;
69991;SDS011;57332;51.320;-0.580;2023-07-20T02:57:09;3.65;;;1.83;;
69991;SDS011;57332;51.320;-0.580;2023-07-20T02:59:36;3.05;;;1.67;;
69991;SDS011;57332;51.320;-0.580;2023-07-20T03:02:03;2.25;;;1.50;;
69991;SDS011;57332;51.320;-0.580;2023-07-20T03:04:30;3.22;;;1.63;;
69991;SDS011;57332;51.320;-0.580;2023-07-20T03:06:57;2.08;;;1.52;;
69991;SDS011;57332;51.320;-0.580;2023-07-20T03:09:24;2.33;;;1.60;;
69991;SDS011;57332;51.320;-0.580;2023-07-20T03:11:51;2.13;;;1.55;;
69991;SDS011;57332;51.320;-0.580;2023-07-20T03:14:17;2.67;;;1.70;;
69991;SDS011;57332;51.320;-0.580;2023-07-20T03:16:44;5.75;;;1.70;;
69991;SDS011;57332;51.320;-0.580;2023-07-20T03:19:11;3.42;;;1.70;;
69991;SDS011;57332;51.320;-0.580;2023-07-20T03:21:38;2.65;;;1.75;;
69991;SDS011;57332;51.320;-0.580;2023-07-20T03:24:08;2.85;;;1.55;;
69991;SDS011;57332;51.320;-0.580;2023-07-20T03:26:35;1.75;;;1.33;;
69991;SDS011;57332;51.320;-0.580;2023-07-20T03:29:03;2.75;;;1.77;;
69991;SDS011;57332;51.320;-0.580;2023-07-20T03:31:30;2.10;;;1.30;;
69991;SDS011;57332;51.320;-0.580;2023-07-20T03:33:57;2.63;;;1.90;;
69991;SDS011;57332;51.320;-0.580;2023-07-20T03:36:24;2.72;;;1.23;;
69991;SDS011;57332;51.320;-0.580;2023-07-20T03:38:51;2.67;;;1.63;;
69991;SDS011;57332;51.320;-0.580;2023-07-20T03:41:18;2.30;;;1.67;;
69991;SDS011;57332;51.320;-0.580;2023-07-20T03:43:46;3.10;;;1.70;;
69991;SDS011;57332;51.320;-0.580;2023-07-20T03:46:16;3.13;;;1.88;;
69991;SDS011;57332;51.320;-0.580;2023-07-20T03:48:43;1.98;;;1.40;;
69991;SDS011;57332;51.320;-0.580;2023-07-20T03:51:09;3.55;;;1.70;;
69991;SDS011;57332;51.320;-0.580;2023-07-20T03:53:36;3.38;;;1.65;;
69991;SDS011;57332;51.320;-0.580;2023-07-20T03:56:04;3.00;;;1.70;;
69991;SDS011;57332;51.320;-0.580;2023-07-20T03:58:31;3.33;;;1.95;;
69991;SDS011;57332;51.320;-0.580;2023-07-20T04:00:58;3.20;;;1.90;;
69991;SDS011;57332;51.320;-0.580;2023-07-20T04:03:25;2.97;;;1.73;;
69991;SDS011;57332;51.320;-0.580;2023-07-20T04:05:53;3.22;;;1.88;;
69991;SDS011;57332;51.320;-0.580;2023-07-20T04:08:24;2.75;;;1.70;;
69991;SDS011;57332;51.320;-0.580;2023-07-20T04:10:51;3.60;;;1.73;;
69991;SDS011;57332;51.320;-0.580;2023-07-20T04:13:18;3.15;;;1.70;;
69991;SDS011;57332;51.320;-0.580;2023-07-20T04:15:45;3.35;;;1.83;;
69991;SDS011;57332;51.320;-0.580;2023-07-20T04:18:12;3.17;;;1.88;;
69991;SDS011;57332;51.320;-0.580;2023-07-20T04:20:39;5.28;;;2.08;;
69991;SDS011;57332;51.320;-0.580;2023-07-20T04:23:07;4.00;;;1.90;;
69991;SDS011;57332;51.320;-0.580;2023-07-20T04:25:34;2.78;;;1.60;;
69991;SDS011;57332;51.320;-0.580;2023-07-20T04:28:06;3.47;;;1.85;;
69991;SDS011;57332;51.320;-0.580;2023-07-20T04:30:37;3.00;;;1.92;;
69991;SDS011;57332;51.320;-0.580;2023-07-20T04:33:06;2.95;;;1.75;;
69991;SDS011;57332;51.320;-0.580;2023-07-20T04:35:46;3.13;;;1.70;;
69991;SDS011;57332;51.320;-0.580;2023-07-20T04:38:14;2.67;;;1.58;;
69991;SDS011;57332;51.320;-0.580;2023-07-20T04:40:45;3.90;;;1.98;;
69991;SDS011;57332;51.320;-0.580;2023-07-20T04:43:12;2.40;;;1.70;;
69991;SDS011;57332;51.320;-0.580;2023-07-20T04:45:39;2.92;;;1.67;;
69991;SDS011;57332;51.320;-0.580;2023-07-20T04:48:08;3.35;;;2.00;;
69991;SDS011;57332;51.320;-0.580;2023-07-20T04:50:36;3.95;;;1.80;;
69991;SDS011;57332;51.320;-0.580;2023-07-20T04:53:03;3.92;;;1.60;;
69991;SDS011;57332;51.320;-0.580;2023-07-20T04:55:30;3.42;;;1.73;;
69991;SDS011;57332;51.320;-0.580;2023-07-20T04:57:57;2.65;;;1.58;;
69991;SDS011;57332;51.320;-0.580;2023-07-20T05:00:24;3.20;;;1.95;;
69991;SDS011;57332;51.320;-0.580;2023-07-20T05:02:51;3.50;;;1.90;;
69991;SDS011;57332;51.320;-0.580;2023-07-20T05:05:18;2.88;;;2.00;;
69991;SDS011;57332;51.320;-0.580;2023-07-20T05:07:45;3.42;;;1.80;;
69991;SDS011;57332;51.320;-0.580;2023-07-20T05:10:12;5.07;;;1.73;;
69991;SDS011;57332;51.320;-0.580;2023-07-20T05:12:39;2.83;;;1.80;;
69991;SDS011;57332;51.320;-0.580;2023-07-20T05:15:06;2.95;;;1.77;;
69991;SDS011;57332;51.320;-0.580;2023-07-20T05:17:33;2.75;;;1.90;;
69991;SDS011;57332;51.320;-0.580;2023-07-20T05:20:00;3.40;;;2.00;;
69991;SDS011;57332;51.320;-0.580;2023-07-20T05:22:27;4.28;;;1.80;;
69991;SDS011;57332;51.320;-0.580;2023-07-20T05:24:53;2.75;;;1.80;;
69991;SDS011;57332;51.320;-0.580;2023-07-20T05:27:20;2.47;;;1.70;;
69991;SDS011;57332;51.320;-0.580;2023-07-20T05:29:48;4.90;;;1.83;;
69991;SDS011;57332;51.320;-0.580;2023-07-20T05:32:15;4.57;;;2.17;;
69991;SDS011;57332;51.320;-0.580;2023-07-20T05:34:42;3.47;;;1.90;;
69991;SDS011;57332;51.320;-0.580;2023-07-20T05:37:08;3.40;;;1.92;;
69991;SDS011;57332;51.320;-0.580;2023-07-20T05:39:39;2.97;;;1.80;;
69991;SDS011;57332;51.320;-0.580;2023-07-20T05:42:06;5.57;;;2.00;;
69991;SDS011;57332;51.320;-0.580;2023-07-20T05:44:33;4.63;;;1.70;;
69991;SDS011;57332;51.320;-0.580;2023-07-20T05:47:00;4.03;;;2.00;;
69991;SDS011;57332;51.320;-0.580;2023-07-20T05:49:28;3.22;;;2.13;;
69991;SDS011;57332;51.320;-0.580;2023-07-20T05:51:55;4.30;;;2.10;;
69991;SDS011;57332;51.320;-0.580;2023-07-20T05:54:25;3.65;;;2.00;;
69991;SDS011;57332;51.320;-0.580;2023-07-20T05:56:52;5.45;;;1.92;;
69991;SDS011;57332;51.320;-0.580;2023-07-20T05:59:19;2.90;;;1.83;;
69991;SDS011;57332;51.320;-0.580;2023-07-20T06:01:46;2.90;;;1.65;;
69991;SDS011;57332;51.320;-0.580;2023-07-20T06:04:16;5.40;;;1.60;;
69991;SDS011;57332;51.320;-0.580;2023-07-20T06:06:43;4.07;;;1.83;;
69991;SDS011;57332;51.320;-0.580;2023-07-20T06:09:10;3.40;;;1.88;;
69991;SDS011;57332;51.320;-0.580;2023-07-20T06:11:39;4.75;;;2.10;;
69991;SDS011;57332;51.320;-0.580;2023-07-20T06:14:05;3.00;;;1.70;;
69991;SDS011;57332;51.320;-0.580;2023-07-20T06:16:32;3.00;;;1.92;;
69991;SDS011;57332;51.320;-0.580;2023-07-20T06:19:00;3.00;;;1.90;;
69991;SDS011;57332;51.320;-0.580;2023-07-20T06:21:27;2.13;;;1.33;;
69991;SDS011;57332;51.320;-0.580;2023-07-20T06:23:54;2.72;;;1.65;;
69991;SDS011;57332;51.320;-0.580;2023-07-20T06:26:21;4.45;;;1.80;;
69991;SDS011;57332;51.320;-0.580;2023-07-20T06:28:48;2.95;;;2.00;;
69991;SDS011;57332;51.320;-0.580;2023-07-20T06:31:16;3.25;;;2.00;;
69991;SDS011;57332;51.320;-0.580;2023-07-20T06:33:43;4.40;;;1.80;;
69991;SDS011;57332;51.320;-0.580;2023-07-20T06:36:10;3.88;;;1.95;;
69991;SDS011;57332;51.320;-0.580;2023-07-20T06:38:37;2.83;;;1.70;;
69991;SDS011;57332;51.320;-0.580;2023-07-20T06:41:04;3.60;;;2.20;;
69991;SDS011;57332;51.320;-0.580;2023-07-20T06:43:34;3.45;;;1.80;;
69991;SDS011;57332;51.320;-0.580;2023-07-20T06:46:04;3.42;;;1.90;;
69991;SDS011;57332;51.320;-0.580;2023-07-20T06:48:31;3.03;;;1.80;;
69991;SDS011;57332;51.320;-0.580;2023-07-20T06:50:58;3.45;;;1.73;;
69991;SDS011;57332;51.320;-0.580;2023-07-20T06:53:25;5.10;;;1.90;;
69991;SDS011;57332;51.320;-0.580;2023-07-20T06:55:52;3.80;;;1.73;;
69991;SDS011;57332;51.320;-0.580;2023-07-20T06:58:19;3.50;;;2.00;;
69991;SDS011;57332;51.320;-0.580;2023-07-20T07:00:48;4.47;;;1.80;;
69991;SDS011;57332;51.320;-0.580;2023-07-20T07:03:15;2.67;;;1.80;;
69991;SDS011;57332;51.320;-0.580;2023-07-20T07:05:42;2.90;;;1.65;;
69991;SDS011;57332;51.320;-0.580;2023-07-20T07:08:09;2.47;;;1.75;;
69991;SDS011;57332;51.320;-0.580;2023-07-20T07:10:36;3.58;;;1.80;;
69991;SDS011;57332;51.320;-0.580;2023-07-20T07:13:03;3.67;;;1.77;;
69991;SDS011;57332;51.320;-0.580;2023-07-20T07:15:31;2.75;;;1.63;;
69991;SDS011;57332;51.320;-0.580;2023-07-20T07:17:59;2.47;;;1.55;;
69991;SDS011;57332;51.320;-0.580;2023-07-20T07:20:27;3.13;;;1.58;;
69991;SDS011;57332;51.320;-0.580;2023-07-20T07:22:54;3.70;;;1.77;;
69991;SDS011;57332;51.320;-0.580;2023-07-20T07:25:22;2.63;;;1.38;;
69991;SDS011;57332;51.320;-0.580;2023-07-20T07:27:50;4.03;;;1.60;;
69991;SDS011;57332;51.320;-0.580;2023-07-20T07:30:17;2.80;;;1.67;;
69991;SDS011;57332;51.320;-0.580;2023-07-20T07:32:44;3.28;;;1.50;;
69991;SDS011;57332;51.320;-0.580;2023-07-20T07:35:11;3.10;;;1.63;;
69991;SDS011;57332;51.320;-0.580;2023-07-20T07:37:38;2.70;;;1.60;;
69991;SDS011;57332;51.320;-0.580;2023-07-20T07:40:25;5.40;;;1.77;;
69991;SDS011;57332;51.320;-0.580;2023-07-20T07:42:52;2.90;;;1.70;;
69991;SDS011;57332;51.320;-0.580;2023-07-20T07:45:19;2.92;;;1.70;;
69991;SDS011;57332;51.320;-0.580;2023-07-20T07:47:46;3.55;;;1.50;;
69991;SDS011;57332;51.320;-0.580;2023-07-20T07:50:13;3.22;;;1.70;;
69991;SDS011;57332;51.320;-0.580;2023-07-20T07:52:40;4.07;;;1.40;;
69991;SDS011;57332;51.320;-0.580;2023-07-20T07:55:07;4.28;;;1.58;;
69991;SDS011;57332;51.320;-0.580;2023-07-20T07:57:34;3.03;;;1.52;;
69991;SDS011;57332;51.320;-0.580;2023-07-20T08:00:00;2.92;;;1.65;;
69991;SDS011;57332;51.320;-0.580;2023-07-20T08:02:27;2.22;;;1.40;;
69991;SDS011;57332;51.320;-0.580;2023-07-20T08:04:55;2.83;;;1.40;;
69991;SDS011;57332;51.320;-0.580;2023-07-20T08:07:22;1.85;;;1.38;;
69991;SDS011;57332;51.320;-0.580;2023-07-20T08:09:48;2.20;;;1.42;;
69991;SDS011;57332;51.320;-0.580;2023-07-20T08:12:15;2.38;;;1.48;;
69991;SDS011;57332;51.320;-0.580;2023-07-20T08:14:45;3.50;;;1.30;;
69991;SDS011;57332;51.320;-0.580;2023-07-20T08:17:12;2.35;;;1.42;;
69991;SDS011;57332;51.320;-0.580;2023-07-20T08:19:39;2.38;;;1.65;;
69991;SDS011;57332;51.320;-0.580;2023-07-20T08:22:08;4.50;;;1.55;;
69991;SDS011;57332;51.320;-0.580;2023-07-20T08:24:38;3.10;;;1.48;;
69991;SDS011;57332;51.320;-0.580;2023-07-20T08:27:06;2.50;;;1.20;;
69991;SDS011;57332;51.320;-0.580;2023-07-20T08:29:33;2.97;;;1.38;;
69991;SDS011;57332;51.320;-0.580;2023-07-20T08:32:00;3.30;;;1.20;;
69991;SDS011;57332;51.320;-0.580;2023-07-20T08:34:27;2.53;;;1.50;;
69991;SDS011;57332;51.320;-0.580;2023-07-20T08:36:58;3.67;;;1.55;;
69991;SDS011;57332;51.320;-0.580;2023-07-20T08:39:25;4.63;;;1.40;;
69991;SDS011;57332;51.320;-0.580;2023-07-20T08:41:52;2.08;;;1.30;;
69991;SDS011;57332;51.320;-0.580;2023-07-20T08:44:20;3.72;;;1.63;;
69991;SDS011;57332;51.320;-0.580;2023-07-20T08:46:47;2.92;;;1.20;;
69991;SDS011;57332;51.320;-0.580;2023-07-20T08:49:15;2.78;;;1.55;;
69991;SDS011;57332;51.320;-0.580;2023-07-20T08:51:43;2.63;;;1.40;;
69991;SDS011;57332;51.320;-0.580;2023-07-20T08:54:09;4.65;;;1.55;;
69991;SDS011;57332;51.320;-0.580;2023-07-20T08:56:38;2.50;;;1.40;;
69991;SDS011;57332;51.320;-0.580;2023-07-20T08:59:07;3.17;;;1.48;;
69991;SDS011;57332;51.320;-0.580;2023-07-20T09:01:34;3.38;;;1.45;;
69991;SDS011;57332;51.320;-0.580;2023-07-20T09:04:02;4.05;;;1.30;;
69991;SDS011;57332;51.320;-0.580;2023-07-20T09:06:29;3.58;;;1.27;;
69991;SDS011;57332;51.320;-0.580;2023-07-20T09:08:57;3.03;;;1.40;;
69991;SDS011;57332;51.320;-0.580;2023-07-20T09:11:24;2.13;;;1.35;;
69991;SDS011;57332;51.320;-0.580;2023-07-20T09:14:13;4.82;;;1.50;;
69991;SDS011;57332;51.320;-0.580;2023-07-20T09:16:54;3.50;;;1.67;;
69991;SDS011;57332;51.320;-0.580;2023-07-20T09:19:22;4.68;;;1.50;;
69991;SDS011;57332;51.320;-0.580;2023-07-20T09:21:49;2.53;;;1.45;;
69991;SDS011;57332;51.320;-0.580;2023-07-20T09:24:17;2.63;;;1.50;;
69991;SDS011;57332;51.320;-0.580;2023-07-20T09:26:45;3.17;;;1.50;;
69991;SDS011;57332;51.320;-0.580;2023-07-20T09:29:17;2.42;;;1.50;;
69991;SDS011;57332;51.320;-0.580;2023-07-20T09:32:03;4.93;;;1.50;;
69991;SDS011;57332;51.320;-0.580;2023-07-20T09:34:31;2.45;;;1.50;;
69991;SDS011;57332;51.320;-0.580;2023-07-20T09:37:01;2.97;;;1.60;;
69991;SDS011;57332;51.320;-0.580;2023-07-20T09:39:29;2.95;;;1.50;;
69991;SDS011;57332;51.320;-0.580;2023-07-20T09:41:59;2.58;;;1.48;;
69991;SDS011;57332;51.320;-0.580;2023-07-20T09:44:29;2.97;;;1.50;;
69991;SDS011;57332;51.320;-0.580;2023-07-20T09:46:59;3.13;;;1.40;;
69991;SDS011;57332;51.320;-0.580;2023-07-20T09:49:28;2.53;;;1.40;;
69991;SDS011;57332;51.320;-0.580;2023-07-20T09:51:59;2.80;;;1.40;;
69991;SDS011;57332;51.320;-0.580;2023-07-20T09:54:29;2.00;;;1.35;;
69991;SDS011;57332;51.320;-0.580;2023-07-20T09:56:56;2.20;;;1.42;;
69991;SDS011;57332;51.320;-0.580;2023-07-20T09:59:24;1.95;;;1.13;;
69991;SDS011;57332;51.320;-0.580;2023-07-20T10:01:51;1.95;;;1.10;;
69991;SDS011;57332;51.320;-0.580;2023-07-20T10:04:20;2.38;;;1.20;;
69991;SDS011;57332;51.320;-0.580;2023-07-20T10:06:48;1.65;;;1.20;;
69991;SDS011;57332;51.320;-0.580;2023-07-20T10:09:16;1.52;;;1.20;;
69991;SDS011;57332;51.320;-0.580;2023-07-20T10:11:45;2.28;;;1.30;;
69991;SDS011;57332;51.320;-0.580;2023-07-20T10:14:38;2.13;;;1.30;;
69991;SDS011;57332;51.320;-0.580;2023-07-20T10:17:07;3.08;;;1.30;;
69991;SDS011;57332;51.320;-0.580;2023-07-20T10:19:44;3.97;;;1.60;;
69991;SDS011;57332;51.320;-0.580;2023-07-20T10:22:24;2.42;;;1.40;;
69991;SDS011;57332;51.320;-0.580;2023-07-20T10:24:52;1.70;;;1.20;;
69991;SDS011;57332;51.320;-0.580;2023-07-20T10:27:26;3.97;;;1.30;;
69991;SDS011;57332;51.320;-0.580;2023-07-20T10:29:53;1.90;;;1.02;;
69991;SDS011;57332;51.320;-0.580;2023-07-20T10:32:21;2.63;;;1.20;;
69991;SDS011;57332;51.320;-0.580;2023-07-20T10:34:52;1.88;;;1.17;;
69991;SDS011;57332;51.320;-0.580;2023-07-20T10:42:52;2.00;;;1.33;;
69991;SDS011;57332;51.320;-0.580;2023-07-20T10:45:32;1.75;;;1.10;;
69991;SDS011;57332;51.320;-0.580;2023-07-20T10:48:02;2.67;;;1.10;;
69991;SDS011;57332;51.320;-0.580;2023-07-20T10:50:29;1.23;;;0.93;;
69991;SDS011;57332;51.320;-0.580;2023-07-20T10:53:19;1.83;;;1.00;;
69991;SDS011;57332;51.320;-0.580;2023-07-20T10:55:45;2.03;;;1.08;;
69991;SDS011;57332;51.320;-0.580;2023-07-20T10:58:17;1.80;;;1.23;;
69991;SDS011;57332;51.320;-0.580;2023-07-20T11:01:17;1.90;;;1.10;;
69991;SDS011;57332;51.320;-0.580;2023-07-20T11:03:37;2.60;;;1.23;;
69991;SDS011;57332;51.320;-0.580;2023-07-20T11:08:55;1.98;;;1.10;;
69991;SDS011;57332;51.320;-0.580;2023-07-20T11:13:54;1.98;;;1.27;;
69991;SDS011;57332;51.320;-0.580;2023-07-20T11:16:35;2.58;;;1.30;;
69991;SDS011;57332;51.320;-0.580;2023-07-20T11:19:02;1.70;;;1.20;;
69991;SDS011;57332;51.320;-0.580;2023-07-20T11:21:36;1.48;;;1.10;;
69991;SDS011;57332;51.320;-0.580;2023-07-20T11:24:21;2.03;;;1.10;;
69991;SDS011;57332;51.320;-0.580;2023-07-20T11:26:49;2.17;;;1.30;;
69991;SDS011;57332;51.320;-0.580;2023-07-20T11:29:16;2.45;;;1.17;;
69991;SDS011;57332;51.320;-0.580;2023-07-20T11:31:58;2.95;;;1.23;;
69991;SDS011;57332;51.320;-0.580;2023-07-20T11:34:29;2.05;;;1.33;;
69991;SDS011;57332;51.320;-0.580;2023-07-20T11:36:56;1.75;;;1.30;;
69991;SDS011;57332;51.320;-0.580;2023-07-20T11:39:26;2.35;;;0.93;;
69991;SDS011;57332;51.320;-0.580;2023-07-20T11:41:57;1.60;;;1.10;;
69991;SDS011;57332;51.320;-0.580;2023-07-20T11:44:25;1.52;;;1.10;;
69991;SDS011;57332;51.320;-0.580;2023-07-20T11:47:07;1.75;;;1.13;;
69991;SDS011;57332;51.320;-0.580;2023-07-20T11:49:34;1.92;;;1.10;;
69991;SDS011;57332;51.320;-0.580;2023-07-20T11:52:06;1.67;;;1.20;;
69991;SDS011;57332;51.320;-0.580;2023-07-20T11:54:34;1.40;;;0.90;;
69991;SDS011;57332;51.320;-0.580;2023-07-20T11:57:01;1.80;;;1.20;;
69991;SDS011;57332;51.320;-0.580;2023-07-20T11:59:29;1.35;;;0.95;;
69991;SDS011;57332;51.320;-0.580;2023-07-20T12:01:56;1.63;;;1.20;;
69991;SDS011;57332;51.320;-0.580;2023-07-20T12:04:23;1.70;;;1.00;;
69991;SDS011;57332;51.320;-0.580;2023-07-20T12:06:50;1.73;;;1.20;;
69991;SDS011;57332;51.320;-0.580;2023-07-20T12:09:19;2.38;;;1.20;;
69991;SDS011;57332;51.320;-0.580;2023-07-20T12:11:48;1.73;;;1.05;;
69991;SDS011;57332;51.320;-0.580;2023-07-20T12:14:15;2.25;;;1.20;;
69991;SDS011;57332;51.320;-0.580;2023-07-20T12:16:43;2.38;;;1.23;;
69991;SDS011;57332;51.320;-0.580;2023-07-20T12:19:12;2.85;;;1.45;;
69991;SDS011;57332;51.320;-0.580;2023-07-20T12:21:39;2.53;;;1.17;;
69991;SDS011;57332;51.320;-0.580;2023-07-20T12:24:08;2.05;;;0.95;;
69991;SDS011;57332;51.320;-0.580;2023-07-20T12:26:36;3.03;;;1.23;;
69991;SDS011;57332;51.320;-0.580;2023-07-20T12:29:03;1.90;;;1.10;;
69991;SDS011;57332;51.320;-0.580;2023-07-20T12:31:30;1.88;;;1.20;;
69991;SDS011;57332;51.320;-0.580;2023-07-20T12:34:01;1.33;;;1.13;;
69991;SDS011;57332;51.320;-0.580;2023-07-20T12:36:28;2.28;;;1.20;;
69991;SDS011;57332;51.320;-0.580;2023-07-20T12:38:54;2.30;;;1.20;;
69991;SDS011;57332;51.320;-0.580;2023-07-20T12:41:21;1.77;;;1.13;;
69991;SDS011;57332;51.320;-0.580;2023-07-20T12:43:48;1.30;;;1.10;;
69991;SDS011;57332;51.320;-0.580;2023-07-20T12:46:16;1.38;;;1.05;;
69991;SDS011;57332;51.320;-0.580;2023-07-20T12:48:43;2.08;;;1.20;;
69991;SDS011;57332;51.320;-0.580;2023-07-20T12:51:13;2.38;;;1.17;;
69991;SDS011;57332;51.320;-0.580;2023-07-20T12:53:40;1.90;;;1.10;;
69991;SDS011;57332;51.320;-0.580;2023-07-20T12:56:07;1.20;;;0.95;;
69991;SDS011;57332;51.320;-0.580;2023-07-20T12:58:37;1.88;;;1.27;;
69991;SDS011;57332;51.320;-0.580;2023-07-20T13:01:04;1.50;;;1.10;;
69991;SDS011;57332;51.320;-0.580;2023-07-20T13:03:31;1.63;;;1.20;;
69991;SDS011;57332;51.320;-0.580;2023-07-20T13:05:59;2.70;;;1.35;;
69991;SDS011;57332;51.320;-0.580;2023-07-20T13:08:29;1.85;;;1.20;;
69991;SDS011;57332;51.320;-0.580;2023-07-20T13:10:55;1.85;;;1.20;;
69991;SDS011;57332;51.320;-0.580;2023-07-20T13:13:23;2.38;;;1.00;;
69991;SDS011;57332;51.320;-0.580;2023-07-20T13:15:50;2.63;;;1.30;;
69991;SDS011;57332;51.320;-0.580;2023-07-20T13:18:17;2.33;;;1.10;;
69991;SDS011;57332;51.320;-0.580;2023-07-20T13:20:45;2.65;;;1.30;;
69991;SDS011;57332;51.320;-0.580;2023-07-20T13:23:12;1.65;;;1.25;;
69991;SDS011;57332;51.320;-0.580;2023-07-20T13:25:39;3.22;;;1.40;;
69991;SDS011;57332;51.320;-0.580;2023-07-20T13:28:07;2.50;;;1.20;;
69991;SDS011;57332;51.320;-0.580;2023-07-20T13:30:34;1.90;;;1.15;;
69991;SDS011;57332;51.320;-0.580;2023-07-20T13:33:01;1.67;;;1.20;;
69991;SDS011;57332;51.320;-0.580;2023-07-20T13:35:33;2.72;;;1.17;;
69991;SDS011;57332;51.320;-0.580;2023-07-20T13:38:02;1.88;;;1.10;;
69991;SDS011;57332;51.320;-0.580;2023-07-20T13:40:29;2.97;;;1.25;;
69991;SDS011;57332;51.320;-0.580;2023-07-20T13:42:56;1.95;;;1.10;;
69991;SDS011;57332;51.320;-0.580;2023-07-20T13:45:24;1.95;;;1.00;;
69991;SDS011;57332;51.320;-0.580;2023-07-20T13:47:51;1.73;;;1.05;;
69991;SDS011;57332;51.320;-0.580;2023-07-20T13:50:19;2.33;;;1.35;;
69991;SDS011;57332;51.320;-0.580;2023-07-20T13:52:49;1.70;;;1.10;;
69991;SDS011;57332;51.320;-0.580;2023-07-20T13:55:17;2.55;;;1.10;;
69991;SDS011;57332;51.320;-0.580;2023-07-20T13:58:04;2.47;;;1.10;;
69991;SDS011;57332;51.320;-0.580;2023-07-20T14:00:31;1.50;;;1.15;;
69991;SDS011;57332;51.320;-0.580;2023-07-20T14:03:01;2.00;;;1.00;;
69991;SDS011;57332;51.320;-0.580;2023-07-20T14:05:30;1.88;;;1.13;;
69991;SDS011;57332;51.320;-0.580;2023-07-20T14:08:00;2.20;;;1.08;;
69991;SDS011;57332;51.320;-0.580;2023-07-20T14:10:27;1.58;;;1.02;;
69991;SDS011;57332;51.320;-0.580;2023-07-20T14:12:54;2.28;;;1.08;;
69991;SDS011;57332;51.320;-0.580;2023-07-20T14:15:21;1.33;;;1.02;;
69991;SDS011;57332;51.320;-0.580;2023-07-20T14:17:48;1.63;;;1.00;;
69991;SDS011;57332;51.320;-0.580;2023-07-20T14:20:15;2.13;;;1.10;;
69991;SDS011;57332;51.320;-0.580;2023-07-20T14:22:45;1.90;;;1.05;;
69991;SDS011;57332;51.320;-0.580;2023-07-20T14:25:12;1.95;;;1.10;;
69991;SDS011;57332;51.320;-0.580;2023-07-20T14:27:39;1.75;;;1.00;;
69991;SDS011;57332;51.320;-0.580;2023-07-20T14:30:06;1.58;;;1.10;;
69991;SDS011;57332;51.320;-0.580;2023-07-20T14:32:35;1.77;;;0.93;;
69991;SDS011;57332;51.320;-0.580;2023-07-20T14:35:02;1.88;;;1.30;;
69991;SDS011;57332;51.320;-0.580;2023-07-20T14:37:28;2.67;;;1.30;;
69991;SDS011;57332;51.320;-0.580;2023-07-20T14:39:55;1.67;;;1.15;;
69991;SDS011;57332;51.320;-0.580;2023-07-20T14:42:22;1.20;;;0.90;;
69991;SDS011;57332;51.320;-0.580;2023-07-20T14:44:49;2.10;;;1.10;;
69991;SDS011;57332;51.320;-0.580;2023-07-20T14:47:18;1.85;;;0.93;;
69991;SDS011;57332;51.320;-0.580;2023-07-20T14:49:45;2.47;;;1.15;;
69991;SDS011;57332;51.320;-0.580;2023-07-20T14:52:12;1.80;;;1.10;;
69991;SDS011;57332;51.320;-0.580;2023-07-20T14:54:42;1.63;;;1.20;;
69991;SDS011;57332;51.320;-0.580;2023-07-20T14:57:09;1.90;;;1.20;;
69991;SDS011;57332;51.320;-0.580;2023-07-20T14:59:41;1.70;;;1.10;;
69991;SDS011;57332;51.320;-0.580;2023-07-20T15:02:09;1.48;;;1.13;;
69991;SDS011;57332;51.320;-0.580;2023-07-20T15:04:36;1.73;;;0.93;;